Detall de PIREP

Printer-friendly versionPDF version

[2014/04/12 15:50:00]
Flight IATA:CT1004
Pilot Number:012
Company ICAO:CAT
Aircraft Type:B763/F
PAX:250
Departing Airport: LEBL
Destination Airport: EDDH
Alternate Airport:EDDW
Online: VATSIM
Route:AGENA UM985 MAROT MONEB UN851 KEMAD UL190 NOLGO
Flight Level:F340
No Slew and time accel
No pause
Crash detect
Detect pilot in Cockpit between each 30 and 45 minutes
15:50 Zero fuel Weight: 276394 Lbs, Fuel Weight: 46082 Lbs
15:50 VATSIM:LEBL 121530Z 07008KT 040V100 9999 FEW020 18/12 Q1016 NOSIG
15:50 VATSIM:EDDH 121520Z 27010KT 240V300 9999 FEW042 SCT050 BKN250 13/03 Q1015 NOSIG
15:50 EASTER CHARTER
15:51 Parking Brakes off
16:01 Take-off
16:01 Take off Weight: 320267 Lbs
16:01 Wind: 063º @ 008 Knots Heading: 245º
16:01 POS N41º 17´ 08´´ E002º 05´ 04´´
16:01 Gear Up: 170 Knots
16:01 Flaps:2 at 170 Knots
16:01 Flaps:1 at 210 Knots
16:02 Flaps:0 at 214 Knots
16:13 TOC
16:13 Fuel Weight: 37927 Lb
16:16 Wind:050º@025 Knots Heading: 077º Ground Speed: 448 Knots Altitude 34068 ft
16:31 Wind:044º@032 Knots Heading: 039º Ground Speed: 437 Knots Altitude 34051 ft
16:46 Wind:050º@053 Knots Heading: 053º Ground Speed: 415 Knots Altitude 34055 ft
17:01 Wind:044º@063 Knots Heading: 000º Ground Speed: 427 Knots Altitude 34045 ft
17:16 Wind:041º@067 Knots Heading: 000º Ground Speed: 422 Knots Altitude 34022 ft
17:31 Wind:035º@067 Knots Heading: 010º Ground Speed: 411 Knots Altitude 34041 ft
17:46 Wind:015º@049 Knots Heading: 007º Ground Speed: 418 Knots Altitude 34035 ft
18:01 Wind:358º@040 Knots Heading: 006º Ground Speed: 425 Knots Altitude 34091 ft
18:07 TOD
18:07 Fuel Weight: 18509 Lb
18:16 Wind:256º@022 Knots Heading: 024º Ground Speed: 375 Knots Altitude 11466 ft
18:18 Flaps:1 at 248 Knots
18:21 Flaps:2 at 234 Knots
18:22 Gear Down: 218 Knots
18:23 Flaps:3 at 192 Knots
18:26 Flaps:4 at 149 Knots
18:27 Flaps:5 at 148 Knots
18:27 Flaps:6 at 145 Knots
18:30 TouchDown:Rate -263 ft/min Speed: 124 Knots
18:30 VATSIM:EDDH 121820Z 25003KT 9999 FEW038 SCT090 BKN160 11/04 Q1014 NOSIG
18:30 Land
18:30 Wind:281º@006 Knots
18:30 Heading: 329º
18:30 Flight Duration: 02:29
18:30 Landing Weight: 291972 Lbs
18:30 POS N53º 38´ 26´´ E009º 59´ 12´´
18:34 Parking brakes on
18:34 Block to Block Duration: 02:43
18:34 Final Fuel: 14883 Lbls
18:34 Spent Fuel: 31199 Lbls
18:34 Flight Length: 995 NM
18:34 TOD Land Length: 110 NM

Exportar CSV

Powered by Drupal - Modified by Danger4k